sensor_id;sensor_type;location;lat;lon;timestamp;pressure;altitude;pressure_sealevel;temperature;humidity
12759;BME280;20944;47.048;15.390;2023-07-13T00:01:09;97274.53;;;23.33;63.59
12759;BME280;20944;47.048;15.390;2023-07-13T00:03:37;97268.34;;;23.32;64.34
12759;BME280;20944;47.048;15.390;2023-07-13T00:06:09;97220.19;;;23.11;63.66
12759;BME280;20944;47.048;15.390;2023-07-13T00:08:38;97261.94;;;23.45;63.20
12759;BME280;20944;47.048;15.390;2023-07-13T00:11:06;97267.88;;;23.48;63.01
12759;BME280;20944;47.048;15.390;2023-07-13T00:13:34;97216.53;;;23.12;63.31
12759;BME280;20944;47.048;15.390;2023-07-13T00:16:05;97268.56;;;23.50;63.20
12759;BME280;20944;47.048;15.390;2023-07-13T00:18:33;97255.94;;;23.52;63.33
12759;BME280;20944;47.048;15.390;2023-07-13T00:21:01;97248.44;;;23.46;62.55
12759;BME280;20944;47.048;15.390;2023-07-13T00:23:35;97230.63;;;23.35;63.32
12759;BME280;20944;47.048;15.390;2023-07-13T00:26:04;97233.78;;;23.20;63.30
12759;BME280;20944;47.048;15.390;2023-07-13T00:28:34;97235.03;;;22.83;65.16
12759;BME280;20944;47.048;15.390;2023-07-13T00:31:02;97237.09;;;22.80;65.31
12759;BME280;20944;47.048;15.390;2023-07-13T00:33:34;97223.03;;;22.78;65.40
12759;BME280;20944;47.048;15.390;2023-07-13T00:36:04;97210.97;;;22.83;66.14
12759;BME280;20944;47.048;15.390;2023-07-13T00:38:34;97196.47;;;22.97;66.29
12759;BME280;20944;47.048;15.390;2023-07-13T00:41:03;97171.56;;;22.97;66.57
12759;BME280;20944;47.048;15.390;2023-07-13T00:43:32;97186.38;;;23.01;66.92
12759;BME280;20944;47.048;15.390;2023-07-13T00:46:18;97155.00;;;22.50;66.58
12759;BME280;20944;47.048;15.390;2023-07-13T00:48:48;97206.00;;;22.79;66.98
12759;BME280;20944;47.048;15.390;2023-07-13T00:51:20;97180.00;;;22.81;67.38
12759;BME280;20944;47.048;15.390;2023-07-13T00:53:52;97167.00;;;22.87;68.36
12759;BME280;20944;47.048;15.390;2023-07-13T00:56:21;97135.41;;;22.81;68.39
12759;BME280;20944;47.048;15.390;2023-07-13T00:58:50;97166.28;;;23.06;67.55
12759;BME280;20944;47.048;15.390;2023-07-13T01:01:18;97171.75;;;23.05;67.28
12759;BME280;20944;47.048;15.390;2023-07-13T01:03:46;97150.06;;;22.98;66.22
12759;BME280;20944;47.048;15.390;2023-07-13T01:06:14;97152.03;;;22.96;66.32
12759;BME280;20944;47.048;15.390;2023-07-13T01:08:44;97136.16;;;23.04;65.95
12759;BME280;20944;47.048;15.390;2023-07-13T01:11:18;97147.47;;;23.08;66.90
12759;BME280;20944;47.048;15.390;2023-07-13T01:13:47;97187.56;;;23.08;65.84
12759;BME280;20944;47.048;15.390;2023-07-13T01:16:21;97215.66;;;23.02;66.75
12759;BME280;20944;47.048;15.390;2023-07-13T01:18:50;97240.09;;;22.98;67.14
12759;BME280;20944;47.048;15.390;2023-07-13T01:21:19;97260.00;;;22.94;67.03
12759;BME280;20944;47.048;15.390;2023-07-13T01:23:48;97244.88;;;22.83;69.05
12759;BME280;20944;47.048;15.390;2023-07-13T01:26:16;97227.94;;;22.61;71.32
12759;BME280;20944;47.048;15.390;2023-07-13T01:28:45;97244.94;;;22.60;72.58
12759;BME280;20944;47.048;15.390;2023-07-13T01:31:13;97251.38;;;22.69;71.95
12759;BME280;20944;47.048;15.390;2023-07-13T01:33:41;97275.50;;;22.68;71.33
12759;BME280;20944;47.048;15.390;2023-07-13T01:36:10;97287.69;;;22.49;72.41
12759;BME280;20944;47.048;15.390;2023-07-13T01:38:40;97306.94;;;22.21;75.59
12759;BME280;20944;47.048;15.390;2023-07-13T01:41:10;97333.47;;;21.89;78.74
12759;BME280;20944;47.048;15.390;2023-07-13T01:43:39;97337.84;;;21.32;82.09
12759;BME280;20944;47.048;15.390;2023-07-13T01:46:07;97382.56;;;20.92;85.40
12759;BME280;20944;47.048;15.390;2023-07-13T01:48:48;97416.03;;;20.46;89.62
12759;BME280;20944;47.048;15.390;2023-07-13T01:51:18;97481.97;;;20.30;91.77
12759;BME280;20944;47.048;15.390;2023-07-13T01:53:47;97529.53;;;20.35;94.98
12759;BME280;20944;47.048;15.390;2023-07-13T01:56:16;97561.81;;;20.43;96.96
12759;BME280;20944;47.048;15.390;2023-07-13T01:58:45;97594.72;;;20.55;97.72
12759;BME280;20944;47.048;15.390;2023-07-13T02:01:13;97609.34;;;20.62;97.24
12759;BME280;20944;47.048;15.390;2023-07-13T02:03:41;97628.31;;;20.70;98.13
12759;BME280;20944;47.048;15.390;2023-07-13T02:06:10;97642.19;;;20.75;97.07
12759;BME280;20944;47.048;15.390;2023-07-13T02:08:40;97661.88;;;20.72;98.67
12759;BME280;20944;47.048;15.390;2023-07-13T02:11:11;97641.31;;;20.35;99.95
12759;BME280;20944;47.048;15.390;2023-07-13T02:13:42;97618.84;;;20.26;100.00
12759;BME280;20944;47.048;15.390;2023-07-13T02:16:10;97664.75;;;20.42;100.00
12759;BME280;20944;47.048;15.390;2023-07-13T02:18:39;97651.00;;;20.36;100.00
12759;BME280;20944;47.048;15.390;2023-07-13T02:21:07;97622.34;;;20.27;100.00
12759;BME280;20944;47.048;15.390;2023-07-13T02:23:35;97619.06;;;20.36;100.00
12759;BME280;20944;47.048;15.390;2023-07-13T02:26:04;97593.84;;;20.41;100.00
12759;BME280;20944;47.048;15.390;2023-07-13T02:28:33;97578.97;;;20.52;100.00
12759;BME280;20944;47.048;15.390;2023-07-13T02:31:06;97557.38;;;20.56;100.00
12759;BME280;20944;47.048;15.390;2023-07-13T02:33:35;97506.56;;;20.59;100.00
12759;BME280;20944;47.048;15.390;2023-07-13T02:36:04;97457.22;;;20.66;100.00
12759;BME280;20944;47.048;15.390;2023-07-13T02:38:33;97404.31;;;20.62;100.00
12759;BME280;20944;47.048;15.390;2023-07-13T02:41:01;97381.00;;;20.53;100.00
12759;BME280;20944;47.048;15.390;2023-07-13T02:43:30;97391.31;;;20.44;100.00
12759;BME280;20944;47.048;15.390;2023-07-13T02:46:00;97377.59;;;20.38;100.00
12759;BME280;20944;47.048;15.390;2023-07-13T02:48:35;97369.41;;;20.28;100.00
12759;BME280;20944;47.048;15.390;2023-07-13T02:51:03;97372.06;;;20.28;100.00
12759;BME280;20944;47.048;15.390;2023-07-13T02:53:32;97372.63;;;20.20;100.00
12759;BME280;20944;47.048;15.390;2023-07-13T02:56:00;97411.56;;;20.21;100.00
12759;BME280;20944;47.048;15.390;2023-07-13T02:58:28;97433.19;;;20.17;100.00
12759;BME280;20944;47.048;15.390;2023-07-13T03:00:56;97456.81;;;20.09;100.00
12759;BME280;20944;47.048;15.390;2023-07-13T03:03:28;97461.28;;;19.96;100.00
12759;BME280;20944;47.048;15.390;2023-07-13T03:05:58;97510.63;;;19.87;100.00
12759;BME280;20944;47.048;15.390;2023-07-13T03:08:27;97516.03;;;19.85;100.00
12759;BME280;20944;47.048;15.390;2023-07-13T03:11:00;97615.63;;;19.81;100.00
12759;BME280;20944;47.048;15.390;2023-07-13T03:13:28;97573.25;;;19.78;100.00
12759;BME280;20944;47.048;15.390;2023-07-13T03:15:56;97557.50;;;19.75;100.00
12759;BME280;20944;47.048;15.390;2023-07-13T03:18:26;97591.81;;;19.65;100.00
12759;BME280;20944;47.048;15.390;2023-07-13T03:20:56;97566.00;;;19.67;100.00
12759;BME280;20944;47.048;15.390;2023-07-13T03:23:24;97516.50;;;19.65;100.00
12759;BME280;20944;47.048;15.390;2023-07-13T03:26:01;97524.00;;;19.85;100.00
12759;BME280;20944;47.048;15.390;2023-07-13T03:28:30;97514.34;;;19.84;100.00
12759;BME280;20944;47.048;15.390;2023-07-13T03:31:02;97472.31;;;19.77;100.00
12759;BME280;20944;47.048;15.390;2023-07-13T03:33:31;97380.41;;;19.73;100.00
12759;BME280;20944;47.048;15.390;2023-07-13T03:36:01;97321.59;;;19.77;100.00
12759;BME280;20944;47.048;15.390;2023-07-13T03:38:29;97232.22;;;19.87;100.00
12759;BME280;20944;47.048;15.390;2023-07-13T03:40:58;97166.50;;;19.77;100.00
12759;BME280;20944;47.048;15.390;2023-07-13T03:43:26;97177.41;;;19.98;100.00
12759;BME280;20944;47.048;15.390;2023-07-13T03:45:54;97173.56;;;20.02;100.00
12759;BME280;20944;47.048;15.390;2023-07-13T03:48:23;97167.97;;;19.93;100.00
12759;BME280;20944;47.048;15.390;2023-07-13T03:50:51;97186.47;;;19.95;100.00
12759;BME280;20944;47.048;15.390;2023-07-13T03:53:21;97234.03;;;19.87;100.00
12759;BME280;20944;47.048;15.390;2023-07-13T03:55:49;97258.59;;;19.90;100.00
12759;BME280;20944;47.048;15.390;2023-07-13T03:58:31;97264.44;;;19.96;100.00
12759;BME280;20944;47.048;15.390;2023-07-13T04:01:01;97285.50;;;19.86;100.00
12759;BME280;20944;47.048;15.390;2023-07-13T04:03:29;97319.66;;;19.79;100.00
12759;BME280;20944;47.048;15.390;2023-07-13T04:06:00;97327.44;;;19.70;100.00
12759;BME280;20944;47.048;15.390;2023-07-13T04:08:31;97331.22;;;19.53;100.00
12759;BME280;20944;47.048;15.390;2023-07-13T04:11:01;97316.75;;;19.31;100.00
12759;BME280;20944;47.048;15.390;2023-07-13T04:13:29;97361.03;;;19.58;100.00
12759;BME280;20944;47.048;15.390;2023-07-13T04:15:58;97353.06;;;19.58;100.00
12759;BME280;20944;47.048;15.390;2023-07-13T04:18:26;97373.38;;;19.84;100.00
12759;BME280;20944;47.048;15.390;2023-07-13T04:20:54;97381.69;;;19.92;100.00
12759;BME280;20944;47.048;15.390;2023-07-13T04:23:23;97388.72;;;19.93;100.00
12759;BME280;20944;47.048;15.390;2023-07-13T04:25:53;97392.00;;;19.84;100.00
12759;BME280;20944;47.048;15.390;2023-07-13T04:28:22;97394.22;;;19.78;100.00
12759;BME280;20944;47.048;15.390;2023-07-13T04:30:50;97399.84;;;19.86;100.00
12759;BME280;20944;47.048;15.390;2023-07-13T04:33:19;97398.69;;;19.90;100.00
12759;BME280;20944;47.048;15.390;2023-07-13T04:35:49;97398.50;;;19.93;100.00
12759;BME280;20944;47.048;15.390;2023-07-13T04:38:24;97400.94;;;19.96;100.00
12759;BME280;20944;47.048;15.390;2023-07-13T04:40:57;97416.59;;;20.01;100.00
12759;BME280;20944;47.048;15.390;2023-07-13T04:43:26;97423.59;;;20.14;100.00
12759;BME280;20944;47.048;15.390;2023-07-13T04:45:54;97425.41;;;20.27;100.00
12759;BME280;20944;47.048;15.390;2023-07-13T04:48:23;97429.25;;;20.10;100.00
12759;BME280;20944;47.048;15.390;2023-07-13T04:50:56;97418.41;;;20.00;100.00
12759;BME280;20944;47.048;15.390;2023-07-13T04:53:25;97366.03;;;19.62;100.00
12759;BME280;20944;47.048;15.390;2023-07-13T04:55:54;97413.09;;;20.00;100.00
12759;BME280;20944;47.048;15.390;2023-07-13T04:58:24;97399.66;;;20.02;100.00
12759;BME280;20944;47.048;15.390;2023-07-13T05:00:53;97408.81;;;20.10;100.00
12759;BME280;20944;47.048;15.390;2023-07-13T05:03:21;97403.41;;;20.12;100.00
12759;BME280;20944;47.048;15.390;2023-07-13T05:05:57;97404.88;;;20.16;100.00
12759;BME280;20944;47.048;15.390;2023-07-13T05:08:26;97397.72;;;20.29;100.00
12759;BME280;20944;47.048;15.390;2023-07-13T05:10:54;97412.28;;;20.36;100.00
12759;BME280;20944;47.048;15.390;2023-07-13T05:13:24;97409.97;;;20.32;100.00
12759;BME280;20944;47.048;15.390;2023-07-13T05:15:57;97397.31;;;20.10;100.00
12759;BME280;20944;47.048;15.390;2023-07-13T05:18:26;97410.59;;;20.35;100.00
12759;BME280;20944;47.048;15.390;2023-07-13T05:20:57;97402.53;;;20.50;100.00
12759;BME280;20944;47.048;15.390;2023-07-13T05:23:26;97410.94;;;20.56;100.00
12759;BME280;20944;47.048;15.390;2023-07-13T05:25:55;97410.47;;;20.75;100.00
12759;BME280;20944;47.048;15.390;2023-07-13T05:28:24;97377.69;;;20.86;100.00
12759;BME280;20944;47.048;15.390;2023-07-13T05:30:54;97402.03;;;21.29;100.00
12759;BME280;20944;47.048;15.390;2023-07-13T05:33:23;97399.13;;;21.56;100.00
12759;BME280;20944;47.048;15.390;2023-07-13T05:35:52;97405.63;;;21.87;100.00
12759;BME280;20944;47.048;15.390;2023-07-13T05:38:20;97377.28;;;22.08;100.00
12759;BME280;20944;47.048;15.390;2023-07-13T05:40:49;97378.53;;;22.38;100.00
12759;BME280;20944;47.048;15.390;2023-07-13T05:43:17;97368.22;;;22.45;100.00
12759;BME280;20944;47.048;15.390;2023-07-13T05:45:47;97390.19;;;22.15;100.00
12759;BME280;20944;47.048;15.390;2023-07-13T05:48:15;97388.97;;;22.30;100.00
12759;BME280;20944;47.048;15.390;2023-07-13T05:50:43;97398.44;;;22.45;100.00
12759;BME280;20944;47.048;15.390;2023-07-13T05:53:12;97396.84;;;22.54;100.00
12759;BME280;20944;47.048;15.390;2023-07-13T05:55:43;97388.47;;;22.47;100.00
12759;BME280;20944;47.048;15.390;2023-07-13T05:58:14;97410.78;;;22.69;100.00
12759;BME280;20944;47.048;15.390;2023-07-13T06:00:43;97407.41;;;22.89;100.00
12759;BME280;20944;47.048;15.390;2023-07-13T06:03:13;97407.88;;;22.83;100.00
12759;BME280;20944;47.048;15.390;2023-07-13T06:05:42;97412.00;;;22.98;100.00
12759;BME280;20944;47.048;15.390;2023-07-13T06:08:10;97391.72;;;22.96;100.00
12759;BME280;20944;47.048;15.390;2023-07-13T06:10:38;97411.91;;;22.88;100.00
12759;BME280;20944;47.048;15.390;2023-07-13T06:13:06;97406.78;;;22.74;100.00
12759;BME280;20944;47.048;15.390;2023-07-13T06:15:35;97415.13;;;22.81;100.00
12759;BME280;20944;47.048;15.390;2023-07-13T06:18:03;97425.59;;;22.84;100.00
12759;BME280;20944;47.048;15.390;2023-07-13T06:20:34;97398.66;;;22.87;100.00
12759;BME280;20944;47.048;15.390;2023-07-13T06:23:02;97426.41;;;23.18;100.00
12759;BME280;20944;47.048;15.390;2023-07-13T06:25:31;97419.16;;;23.41;100.00
12759;BME280;20944;47.048;15.390;2023-07-13T06:27:59;97423.38;;;23.76;100.00
12759;BME280;20944;47.048;15.390;2023-07-13T06:30:28;97421.06;;;23.82;96.94
12759;BME280;20944;47.048;15.390;2023-07-13T06:32:56;97427.19;;;23.73;94.58
12759;BME280;20944;47.048;15.390;2023-07-13T06:35:24;97412.06;;;23.51;96.69
12759;BME280;20944;47.048;15.390;2023-07-13T06:37:54;97414.94;;;23.59;95.74
12759;BME280;20944;47.048;15.390;2023-07-13T06:40:23;97418.31;;;23.73;95.78
12759;BME280;20944;47.048;15.390;2023-07-13T06:42:51;97414.47;;;23.65;94.93
12759;BME280;20944;47.048;15.390;2023-07-13T06:45:19;97408.75;;;23.59;94.37
12759;BME280;20944;47.048;15.390;2023-07-13T06:47:48;97421.13;;;23.71;92.88
12759;BME280;20944;47.048;15.390;2023-07-13T06:50:16;97422.47;;;24.07;91.92
12759;BME280;20944;47.048;15.390;2023-07-13T06:52:44;97410.34;;;24.03;88.36
12759;BME280;20944;47.048;15.390;2023-07-13T06:55:14;97427.34;;;24.44;90.20
12759;BME280;20944;47.048;15.390;2023-07-13T06:57:42;97438.66;;;24.78;89.57
12759;BME280;20944;47.048;15.390;2023-07-13T07:00:12;97438.13;;;24.84;86.29
12759;BME280;20944;47.048;15.390;2023-07-13T07:02:40;97445.25;;;24.64;78.04
12759;BME280;20944;47.048;15.390;2023-07-13T07:05:09;97430.97;;;24.64;72.00
12759;BME280;20944;47.048;15.390;2023-07-13T07:07:37;97442.03;;;24.80;71.15
12759;BME280;20944;47.048;15.390;2023-07-13T07:10:06;97449.69;;;24.85;72.19
12759;BME280;20944;47.048;15.390;2023-07-13T07:12:36;97422.22;;;24.62;71.25
12759;BME280;20944;47.048;15.390;2023-07-13T07:15:05;97446.31;;;24.92;70.39
12759;BME280;20944;47.048;15.390;2023-07-13T07:17:34;97452.56;;;25.02;70.49
12759;BME280;20944;47.048;15.390;2023-07-13T07:20:03;97448.84;;;24.94;68.42
12759;BME280;20944;47.048;15.390;2023-07-13T07:22:32;97449.78;;;25.14;69.34
12759;BME280;20944;47.048;15.390;2023-07-13T07:25:00;97449.00;;;25.42;68.04
12759;BME280;20944;47.048;15.390;2023-07-13T07:27:28;97446.00;;;25.26;67.45
12759;BME280;20944;47.048;15.390;2023-07-13T07:30:01;97442.06;;;25.40;67.97
12759;BME280;20944;47.048;15.390;2023-07-13T07:32:32;97438.78;;;25.26;67.07
12759;BME280;20944;47.048;15.390;2023-07-13T07:35:04;97420.84;;;25.17;67.99
12759;BME280;20944;47.048;15.390;2023-07-13T07:37:32;97430.91;;;25.35;66.46
12759;BME280;20944;47.048;15.390;2023-07-13T07:40:04;97425.53;;;25.35;68.83
12759;BME280;20944;47.048;15.390;2023-07-13T07:42:36;97413.13;;;25.34;68.03
12759;BME280;20944;47.048;15.390;2023-07-13T07:45:06;97423.69;;;25.64;69.46
12759;BME280;20944;47.048;15.390;2023-07-13T07:47:35;97423.44;;;25.67;67.31
12759;BME280;20944;47.048;15.390;2023-07-13T07:50:03;97401.69;;;25.61;66.69
12759;BME280;20944;47.048;15.390;2023-07-13T07:52:32;97413.84;;;25.74;66.07
12759;BME280;20944;47.048;15.390;2023-07-13T07:55:00;97405.63;;;25.66;66.21
12759;BME280;20944;47.048;15.390;2023-07-13T07:57:32;97421.91;;;25.74;67.46
12759;BME280;20944;47.048;15.390;2023-07-13T08:00:22;97429.09;;;25.54;67.80
12759;BME280;20944;47.048;15.390;2023-07-13T08:02:54;97431.63;;;25.75;66.59
12759;BME280;20944;47.048;15.390;2023-07-13T08:05:42;97413.66;;;25.56;65.61
12759;BME280;20944;47.048;15.390;2023-07-13T08:08:22;97426.69;;;26.00;65.23
12759;BME280;20944;47.048;15.390;2023-07-13T08:10:50;97433.03;;;26.08;63.42
12759;BME280;20944;47.048;15.390;2023-07-13T08:13:20;97429.31;;;26.29;63.75
12759;BME280;20944;47.048;15.390;2023-07-13T08:15:50;97401.06;;;26.15;60.92
12759;BME280;20944;47.048;15.390;2023-07-13T08:18:18;97426.19;;;26.43;60.17
12759;BME280;20944;47.048;15.390;2023-07-13T08:20:47;97427.34;;;26.68;59.96
12759;BME280;20944;47.048;15.390;2023-07-13T08:23:15;97417.75;;;26.93;60.85
12759;BME280;20944;47.048;15.390;2023-07-13T08:25:50;97404.66;;;27.08;60.23
12759;BME280;20944;47.048;15.390;2023-07-13T08:28:19;97410.06;;;27.43;59.08
12759;BME280;20944;47.048;15.390;2023-07-13T08:30:47;97398.25;;;27.54;55.14
12759;BME280;20944;47.048;15.390;2023-07-13T08:33:18;97410.09;;;27.61;53.13
12759;BME280;20944;47.048;15.390;2023-07-13T08:35:46;97395.69;;;27.35;53.34
12759;BME280;20944;47.048;15.390;2023-07-13T08:38:15;97419.84;;;27.45;52.00
12759;BME280;20944;47.048;15.390;2023-07-13T08:40:45;97420.16;;;27.41;52.08
12759;BME280;20944;47.048;15.390;2023-07-13T08:43:20;97416.31;;;27.62;53.17
12759;BME280;20944;47.048;15.390;2023-07-13T08:45:53;97407.88;;;27.75;52.99
12759;BME280;20944;47.048;15.390;2023-07-13T08:48:27;97412.63;;;27.81;54.55
12759;BME280;20944;47.048;15.390;2023-07-13T08:50:59;97415.75;;;27.94;54.58
12759;BME280;20944;47.048;15.390;2023-07-13T08:53:33;97419.34;;;28.03;53.10
12759;BME280;20944;47.048;15.390;2023-07-13T08:56:04;97404.28;;;28.10;50.87
12759;BME280;20944;47.048;15.390;2023-07-13T08:58:33;97387.22;;;28.09;51.95
12759;BME280;20944;47.048;15.390;2023-07-13T09:01:08;97383.91;;;28.15;51.97
12759;BME280;20944;47.048;15.390;2023-07-13T09:03:49;97377.63;;;28.07;51.57
12759;BME280;20944;47.048;15.390;2023-07-13T09:06:23;97335.47;;;27.98;50.29
12759;BME280;20944;47.048;15.390;2023-07-13T09:08:58;97390.00;;;28.43;50.54
12759;BME280;20944;47.048;15.390;2023-07-13T09:11:39;97376.25;;;28.55;48.94
12759;BME280;20944;47.048;15.390;2023-07-13T09:14:33;97391.47;;;28.64;48.48
12759;BME280;20944;47.048;15.390;2023-07-13T09:17:04;97403.94;;;28.65;47.49
12759;BME280;20944;47.048;15.390;2023-07-13T09:19:34;97391.47;;;28.72;48.73
12759;BME280;20944;47.048;15.390;2023-07-13T09:22:05;97403.88;;;28.91;48.15
12759;BME280;20944;47.048;15.390;2023-07-13T09:24:45;97403.84;;;29.17;48.51
12759;BME280;20944;47.048;15.390;2023-07-13T09:27:21;97402.69;;;29.44;46.69
12759;BME280;20944;47.048;15.390;2023-07-13T09:29:56;97411.00;;;29.67;48.03
12759;BME280;20944;47.048;15.390;2023-07-13T09:32:26;97413.38;;;29.62;45.38
12759;BME280;20944;47.048;15.390;2023-07-13T09:34:57;97383.81;;;29.52;46.26
12759;BME280;20944;47.048;15.390;2023-07-13T09:37:30;97410.53;;;29.79;45.79
12759;BME280;20944;47.048;15.390;2023-07-13T09:40:01;97347.50;;;29.38;44.08
12759;BME280;20944;47.048;15.390;2023-07-13T09:42:32;97392.09;;;29.67;45.33
12759;BME280;20944;47.048;15.390;2023-07-13T09:45:02;97398.19;;;29.61;46.61
12759;BME280;20944;47.048;15.390;2023-07-13T09:47:32;97404.59;;;29.76;46.55
12759;BME280;20944;47.048;15.390;2023-07-13T09:50:14;97400.72;;;29.95;46.04
12759;BME280;20944;47.048;15.390;2023-07-13T09:52:44;97375.22;;;30.05;46.18
12759;BME280;20944;47.048;15.390;2023-07-13T09:55:33;97394.44;;;30.35;43.25
12759;BME280;20944;47.048;15.390;2023-07-13T09:58:09;97392.91;;;30.49;44.52
12759;BME280;20944;47.048;15.390;2023-07-13T10:00:39;97400.56;;;30.21;43.75
12759;BME280;20944;47.048;15.390;2023-07-13T10:03:19;97395.63;;;30.32;43.89
12759;BME280;20944;47.048;15.390;2023-07-13T10:05:51;97394.44;;;30.35;43.68
12759;BME280;20944;47.048;15.390;2023-07-13T10:08:24;97389.06;;;30.02;43.56
12759;BME280;20944;47.048;15.390;2023-07-13T10:10:59;97378.06;;;29.96;44.11
12759;BME280;20944;47.048;15.390;2023-07-13T10:13:30;97361.69;;;29.97;44.78
12759;BME280;20944;47.048;15.390;2023-07-13T10:15:59;97380.41;;;30.23;45.35
12759;BME280;20944;47.048;15.390;2023-07-13T10:18:29;97387.81;;;30.46;45.09
12759;BME280;20944;47.048;15.390;2023-07-13T10:21:13;97366.31;;;30.52;46.46
12759;BME280;20944;47.048;15.390;2023-07-13T10:23:48;97385.22;;;30.60;46.14
12759;BME280;20944;47.048;15.390;2023-07-13T10:26:23;97376.56;;;30.73;45.01
12759;BME280;20944;47.048;15.390;2023-07-13T10:28:56;97373.84;;;30.81;45.48
12759;BME280;20944;47.048;15.390;2023-07-13T10:31:25;97370.59;;;30.86;44.63
12759;BME280;20944;47.048;15.390;2023-07-13T10:33:53;97380.91;;;30.91;44.57
12759;BME280;20944;47.048;15.390;2023-07-13T10:36:30;97378.16;;;30.68;44.31
12759;BME280;20944;47.048;15.390;2023-07-13T10:39:01;97385.22;;;30.60;45.30
12759;BME280;20944;47.048;15.390;2023-07-13T10:41:32;97385.22;;;30.60;44.94
12759;BME280;20944;47.048;15.390;2023-07-13T10:44:04;97382.00;;;30.73;45.51
12759;BME280;20944;47.048;15.390;2023-07-13T10:46:33;97381.75;;;30.91;44.99
12759;BME280;20944;47.048;15.390;2023-07-13T10:49:04;97376.25;;;31.07;43.71
12759;BME280;20944;47.048;15.390;2023-07-13T10:51:34;97379.19;;;31.29;43.65
12759;BME280;20944;47.048;15.390;2023-07-13T10:54:14;97379.03;;;31.30;42.42
12759;BME280;20944;47.048;15.390;2023-07-13T10:56:48;97370.44;;;31.19;42.07
12759;BME280;20944;47.048;15.390;2023-07-13T10:59:18;97390.00;;;31.37;42.59
12759;BME280;20944;47.048;15.390;2023-07-13T11:01:56;97382.00;;;31.44;42.61
12759;BME280;20944;47.048;15.390;2023-07-13T11:04:26;97384.50;;;31.45;42.58
12759;BME280;20944;47.048;15.390;2023-07-13T11:07:00;97367.59;;;31.43;43.42
12759;BME280;20944;47.048;15.390;2023-07-13T11:09:39;97363.03;;;31.44;47.17
12759;BME280;20944;47.048;15.390;2023-07-13T11:12:27;97355.13;;;31.03;46.77
12759;BME280;20944;47.048;15.390;2023-07-13T11:15:11;97356.16;;;30.54;48.11
12759;BME280;20944;47.048;15.390;2023-07-13T11:17:51;97360.19;;;29.95;51.25
12759;BME280;20944;47.048;15.390;2023-07-13T11:20:30;97340.94;;;29.81;50.26
12759;BME280;20944;47.048;15.390;2023-07-13T11:23:29;97361.53;;;29.58;50.54
12759;BME280;20944;47.048;15.390;2023-07-13T11:25:58;97361.13;;;29.04;51.57
12759;BME280;20944;47.048;15.390;2023-07-13T11:28:31;97365.59;;;28.87;52.68
12759;BME280;20944;47.048;15.390;2023-07-13T11:31:13;97185.47;;;27.98;51.38
12759;BME280;20944;47.048;15.390;2023-07-13T11:33:58;97354.53;;;29.15;51.89
12759;BME280;20944;47.048;15.390;2023-07-13T11:36:36;97346.13;;;29.18;52.86
12759;BME280;20944;47.048;15.390;2023-07-13T11:39:18;97349.78;;;28.92;51.44
12759;BME280;20944;47.048;15.390;2023-07-13T11:41:51;97351.00;;;28.64;53.10
12759;BME280;20944;47.048;15.390;2023-07-13T11:44:22;97350.28;;;28.28;52.44
12759;BME280;20944;47.048;15.390;2023-07-13T11:46:53;97345.25;;;27.99;52.95
12759;BME280;20944;47.048;15.390;2023-07-13T11:49:24;97364.13;;;27.99;54.31
12759;BME280;20944;47.048;15.390;2023-07-13T11:51:54;97372.25;;;28.07;56.00
12759;BME280;20944;47.048;15.390;2023-07-13T11:54:29;97359.66;;;27.89;56.83
12759;BME280;20944;47.048;15.390;2023-07-13T11:57:02;97353.75;;;27.86;56.73
12759;BME280;20944;47.048;15.390;2023-07-13T11:59:37;97353.66;;;27.78;57.57
12759;BME280;20944;47.048;15.390;2023-07-13T12:02:16;97342.22;;;27.76;59.46
12759;BME280;20944;47.048;15.390;2023-07-13T12:04:46;97348.78;;;27.73;60.43
12759;BME280;20944;47.048;15.390;2023-07-13T12:07:16;97342.13;;;27.85;59.91
12759;BME280;20944;47.048;15.390;2023-07-13T12:09:46;97346.78;;;28.01;60.40
12759;BME280;20944;47.048;15.390;2023-07-13T12:12:18;97327.41;;;27.98;59.42
12759;BME280;20944;47.048;15.390;2023-07-13T12:14:50;97337.78;;;28.18;58.84
12759;BME280;20944;47.048;15.390;2023-07-13T12:17:21;97338.69;;;28.01;60.85
12759;BME280;20944;47.048;15.390;2023-07-13T12:19:51;97331.34;;;27.85;61.17
12759;BME280;20944;47.048;15.390;2023-07-13T12:22:20;97333.63;;;27.54;61.67
12759;BME280;20944;47.048;15.390;2023-07-13T12:24:51;97331.09;;;27.17;63.59
12759;BME280;20944;47.048;15.390;2023-07-13T12:27:22;97340.53;;;27.03;63.50
12759;BME280;20944;47.048;15.390;2023-07-13T12:29:52;97343.06;;;27.05;63.92
12759;BME280;20944;47.048;15.390;2023-07-13T12:32:21;97342.34;;;27.03;64.36
12759;BME280;20944;47.048;15.390;2023-07-13T12:34:53;97325.53;;;27.01;65.28
12759;BME280;20944;47.048;15.390;2023-07-13T12:37:23;97304.00;;;27.01;64.94
12759;BME280;20944;47.048;15.390;2023-07-13T12:39:53;97315.94;;;26.98;67.09
12759;BME280;20944;47.048;15.390;2023-07-13T12:42:23;97331.25;;;26.70;69.76
12759;BME280;20944;47.048;15.390;2023-07-13T12:44:58;97351.31;;;26.48;72.45
12759;BME280;20944;47.048;15.390;2023-07-13T12:47:28;97363.16;;;26.18;72.69
12759;BME280;20944;47.048;15.390;2023-07-13T12:49:58;97373.31;;;25.77;76.09
12759;BME280;20944;47.048;15.390;2023-07-13T12:52:30;97385.56;;;25.22;80.00
12759;BME280;20944;47.048;15.390;2023-07-13T12:55:06;97395.22;;;24.94;81.40
12759;BME280;20944;47.048;15.390;2023-07-13T12:57:40;97400.97;;;24.80;81.58
12759;BME280;20944;47.048;15.390;2023-07-13T13:00:22;97407.19;;;24.70;82.23
12759;BME280;20944;47.048;15.390;2023-07-13T13:02:53;97404.06;;;24.65;84.08
12759;BME280;20944;47.048;15.390;2023-07-13T13:05:41;97411.06;;;24.57;82.00
12759;BME280;20944;47.048;15.390;2023-07-13T13:08:12;97394.78;;;24.39;81.12